Pelican State — WDE4433 — position and weather

sailwx.info

Track history (hours):
 
Tides and Currents Weather Stations Pressure Air Temp Water Temp Dewpoint Dewpoint Depression Visibility Wind Speed Wind Dir Waves Ship Positions

Pelican State

Owner: Crowley Petroleum Serives, Jacksonville, FL. More information available from US FCC via Universal Licensing System and Coast Guard Vessel Documentation Center.

Last reported at 2017-Jan-17 09:33 UTC. Time now 2017-Jan-17 13:01 UTC.
Position N 47°48' W 125°38'.

Length 183 m; draft 9.6 m.

Type: Tanker. MMSI: 367353110.

Date/timePositionNaut miles runAvg speedWind from/ knotsBaromVisibWave heightAir tempDewpointWater temp
2017-Jan-17 09:33N 47°48' W 125°38'3110.4
2017-Jan-17 06:32N 48°16' W 125°15'1111.4
2017-Jan-17 05:32N 48°26' W 125°07'1212.0
2017-Jan-17 04:34N 48°30' W 124°51'1414.3
2017-Jan-17 03:34N 48°27' W 124°30'1514.7
2017-Jan-17 02:33N 48°21' W 124°09'1414.0
2017-Jan-17 01:33N 48°16' W 123°50'1414.0
2017-Jan-17 00:32N 48°14' W 123°28'9 9.6
2017-Jan-16 23:33N 48°11' W 123°15'1312.9
2017-Jan-16 22:34N 48°20' W 122°60'1211.5
2017-Jan-16 21:33N 48°26' W 122°46'1212.1
2017-Jan-16 20:34N 48°38' W 122°44'1111.2
2017-Jan-16 19:33N 48°49' W 122°46'2 0.1
2017-Jan-15 11:34N 48°51' W 122°48'5 5.4
2017-Jan-15 10:33N 48°46' W 122°46'1313.5
2017-Jan-15 09:33N 48°32' W 122°45'1211.9
2017-Jan-15 08:33N 48°22' W 122°53'1313.3
2017-Jan-15 07:34N 48°15' W 123°10'1211.8
2017-Jan-15 06:33N 48°08' W 123°24'1 0.6
2017-Jan-15 05:29N 48°08' W 123°25'0 0.0
2017-Jan-15 04:29N 48°08' W 123°25'0 0.0
2017-Jan-15 03:29N 48°08' W 123°25'0 0.0
2017-Jan-15 02:32N 48°08' W 123°25'0 0.0
2017-Jan-15 01:32N 48°08' W 123°25'0 0.1
2017-Jan-15 00:26N 48°08' W 123°25'0 0.0
2017-Jan-14 23:29N 48°08' W 123°25'0 0.0
2017-Jan-14 22:29N 48°08' W 123°25'0 0.0
2017-Jan-14 21:32N 48°08' W 123°25'0 0.0
2017-Jan-14 20:23N 48°08' W 123°25'0 0.1
2017-Jan-14 19:29N 48°08' W 123°25'0 0.0
2017-Jan-14 18:29N 48°08' W 123°25'0 0.0
2017-Jan-14 17:33N 48°08' W 123°25'0 0.1
2017-Jan-14 16:30N 48°08' W 123°25'0 0.1
2017-Jan-14 15:33N 48°08' W 123°25'0 0.0
2017-Jan-14 14:30N 48°08' W 123°25'0 0.0
2017-Jan-14 13:33N 48°08' W 123°25'0 0.0
2017-Jan-14 12:33N 48°08' W 123°25'0 0.0
2017-Jan-14 11:33N 48°08' W 123°25'0 0.0
2017-Jan-14 10:33N 48°08' W 123°25'0 0.0
2017-Jan-14 09:33N 48°08' W 123°25'0 0.1
2017-Jan-14 08:33N 48°08' W 123°25'0 0.0
2017-Jan-14 07:30N 48°08' W 123°25'0 0.0
2017-Jan-14 06:33N 48°08' W 123°25'0 0.0
2017-Jan-14 05:33N 48°08' W 123°25'0 0.0
2017-Jan-14 04:33N 48°08' W 123°25'0 0.0
2017-Jan-14 03:33N 48°08' W 123°25'0 0.0
2017-Jan-13 23:30N 48°08' W 123°25'0 0.0
2017-Jan-13 22:33N 48°08' W 123°25'0 0.0
2017-Jan-13 21:33N 48°08' W 123°25'0 0.0
2017-Jan-13 20:33N 48°08' W 123°25'0 0.1
2017-Jan-13 19:33N 48°08' W 123°25'0 0.0
2017-Jan-13 18:33N 48°08' W 123°25'0 0.2
2017-Jan-13 17:33N 48°08' W 123°25'0 0.1
2017-Jan-13 16:30N 48°08' W 123°25'0 0.1
2017-Jan-13 15:33N 48°08' W 123°25'0 0.1
2017-Jan-13 14:33N 48°08' W 123°25'0 0.0
2017-Jan-13 13:24N 48°08' W 123°25'0 0.1
2017-Jan-13 12:33N 48°08' W 123°25'0 0.1
2017-Jan-13 11:33N 48°08' W 123°25'0 0.0
2017-Jan-13 10:33N 48°08' W 123°25'0 0.0
2017-Jan-13 09:33N 48°08' W 123°25'0 0.0
2017-Jan-13 08:33N 48°08' W 123°25'0 0.0
2017-Jan-13 07:33N 48°08' W 123°25'0 0.0
2017-Jan-13 06:33N 48°08' W 123°25'0 0.0
2017-Jan-13 05:33N 48°08' W 123°25'0 0.0
2017-Jan-13 04:33N 48°08' W 123°25'0 0.0
2017-Jan-13 03:33N 48°08' W 123°25'0 0.0
2017-Jan-13 02:33N 48°08' W 123°25'0 0.0
2017-Jan-13 01:33N 48°08' W 123°25'2 1.7
2017-Jan-13 00:33N 48°10' W 123°24'7 6.5
2017-Jan-12 23:30N 48°14' W 123°33'8 8.6
2017-Jan-12 22:33N 48°14' W 123°45'1111.1
2017-Jan-12 21:33N 48°15' W 124°02'1313.0
2017-Jan-12 20:34N 48°21' W 124°19'1414.1
2017-Jan-12 19:34N 48°27' W 124°39'1312.8
2017-Jan-12 18:32N 48°29' W 124°58'1313.0
2017-Jan-12 17:33N 48°18' W 125°09'  
2017-Jan-10 11:26N 38°14' W 124°29'2311.6
2017-Jan-10 09:24N 37°54' W 124°14'1112.0
2017-Jan-10 08:30N 37°44' W 124°07'3410.2
2017-Jan-10 05:08N 37°34' W 123°26'811.8
2017-Jan-10 04:28N 37°33' W 123°16'1111.8
2017-Jan-10 03:33N 37°35' W 123°02'1211.9
2017-Jan-10 02:33N 37°42' W 122°50'1111.4
2017-Jan-10 01:33N 37°46' W 122°37'1211.8
2017-Jan-10 00:33N 37°54' W 122°25'1 1.4
2017-Jan-09 23:32N 37°55' W 122°25'0 0.0
2017-Jan-09 22:29N 37°55' W 122°25'0 0.0
2017-Jan-09 21:29N 37°55' W 122°25'0 0.0
2017-Jan-09 20:32N 37°55' W 122°25'0 0.0
2017-Jan-09 19:32N 37°55' W 122°25'0 0.0
2017-Jan-09 18:32N 37°55' W 122°25'0 0.0
2017-Jan-09 17:29N 37°55' W 122°25'0 0.0
2017-Jan-09 16:32N 37°55' W 122°25'0 0.0
2017-Jan-09 15:29N 37°55' W 122°25'0 0.0
2017-Jan-09 14:32N 37°55' W 122°25'0 0.0
2017-Jan-09 13:32N 37°55' W 122°25'0 0.0
2017-Jan-09 12:32N 37°55' W 122°25'0 0.0
2017-Jan-09 11:32N 37°55' W 122°25'0 0.0
2017-Jan-09 10:32N 37°55' W 122°25'0 0.0
2017-Jan-09 09:29N 37°55' W 122°25'0 0.0
2017-Jan-09 08:29N 37°55' W 122°25'0 0.0
2017-Jan-09 07:29N 37°55' W 122°25'0 0.0
2017-Jan-09 06:33N 37°55' W 122°25'3 2.6
2017-Jan-09 05:33N 37°54' W 122°22'0 0.0
2017-Jan-07 18:32N 37°55' W 122°22'0 0.0
2017-Jan-07 17:32N 37°55' W 122°22'0 0.0
2017-Jan-07 16:32N 37°55' W 122°22'1 1.4
2017-Jan-07 15:33N 37°54' W 122°24'5 5.4
2017-Jan-07 14:33N 37°50' W 122°28'1212.1
2017-Jan-07 13:33N 37°44' W 122°41'6 6.5
2017-Jan-07 12:33N 37°40' W 122°47'10 9.8
2017-Jan-07 11:33N 37°35' W 122°58'9 8.8
2017-Jan-07 10:33N 37°33' W 123°09'8 8.3
2017-Jan-07 09:33N 37°33' W 123°19'  
Track history (hours):
 
Tides and Currents Weather Stations Pressure Air Temp Water Temp Dewpoint Dewpoint Depression Visibility Wind Speed Wind Dir Waves Ship Positions

Pelican State

Owner: Crowley Petroleum Serives, Jacksonville, FL. More information available from US FCC via Universal Licensing System and Coast Guard Vessel Documentation Center.

Last reported at 2017-Jan-17 09:33 UTC. Time now 2017-Jan-17 13:01 UTC.
Position N 47°48' W 125°38'.

Length 183 m; draft 9.6 m.

Type: Tanker. MMSI: 367353110.

Date/timePositionNaut miles runAvg speedWind from/ knotsBaromVisibWave heightAir tempDewpointWater temp
2017-Jan-17 09:33N 47°48' W 125°38'3110.4
2017-Jan-17 06:32N 48°16' W 125°15'1111.4
2017-Jan-17 05:32N 48°26' W 125°07'1212.0
2017-Jan-17 04:34N 48°30' W 124°51'1414.3
2017-Jan-17 03:34N 48°27' W 124°30'1514.7
2017-Jan-17 02:33N 48°21' W 124°09'1414.0
2017-Jan-17 01:33N 48°16' W 123°50'1414.0
2017-Jan-17 00:32N 48°14' W 123°28'9 9.6
2017-Jan-16 23:33N 48°11' W 123°15'1312.9
2017-Jan-16 22:34N 48°20' W 122°60'1211.5
2017-Jan-16 21:33N 48°26' W 122°46'1212.1
2017-Jan-16 20:34N 48°38' W 122°44'1111.2
2017-Jan-16 19:33N 48°49' W 122°46'2 0.1
2017-Jan-15 11:34N 48°51' W 122°48'5 5.4
2017-Jan-15 10:33N 48°46' W 122°46'1313.5
2017-Jan-15 09:33N 48°32' W 122°45'1211.9
2017-Jan-15 08:33N 48°22' W 122°53'1313.3
2017-Jan-15 07:34N 48°15' W 123°10'1211.8
2017-Jan-15 06:33N 48°08' W 123°24'1 0.6
2017-Jan-15 05:29N 48°08' W 123°25'0 0.0
2017-Jan-15 04:29N 48°08' W 123°25'0 0.0
2017-Jan-15 03:29N 48°08' W 123°25'0 0.0
2017-Jan-15 02:32N 48°08' W 123°25'0 0.0
2017-Jan-15 01:32N 48°08' W 123°25'0 0.1
2017-Jan-15 00:26N 48°08' W 123°25'0 0.0
2017-Jan-14 23:29N 48°08' W 123°25'0 0.0
2017-Jan-14 22:29N 48°08' W 123°25'0 0.0
2017-Jan-14 21:32N 48°08' W 123°25'0 0.0
2017-Jan-14 20:23N 48°08' W 123°25'0 0.1
2017-Jan-14 19:29N 48°08' W 123°25'0 0.0
2017-Jan-14 18:29N 48°08' W 123°25'0 0.0
2017-Jan-14 17:33N 48°08' W 123°25'0 0.1
2017-Jan-14 16:30N 48°08' W 123°25'0 0.1
2017-Jan-14 15:33N 48°08' W 123°25'0 0.0
2017-Jan-14 14:30N 48°08' W 123°25'0 0.0
2017-Jan-14 13:33N 48°08' W 123°25'0 0.0
2017-Jan-14 12:33N 48°08' W 123°25'0 0.0
2017-Jan-14 11:33N 48°08' W 123°25'0 0.0
2017-Jan-14 10:33N 48°08' W 123°25'0 0.0
2017-Jan-14 09:33N 48°08' W 123°25'0 0.1
2017-Jan-14 08:33N 48°08' W 123°25'0 0.0
2017-Jan-14 07:30N 48°08' W 123°25'0 0.0
2017-Jan-14 06:33N 48°08' W 123°25'0 0.0
2017-Jan-14 05:33N 48°08' W 123°25'0 0.0
2017-Jan-14 04:33N 48°08' W 123°25'0 0.0
2017-Jan-14 03:33N 48°08' W 123°25'0 0.0
2017-Jan-13 23:30N 48°08' W 123°25'0 0.0
2017-Jan-13 22:33N 48°08' W 123°25'0 0.0
2017-Jan-13 21:33N 48°08' W 123°25'0 0.0
2017-Jan-13 20:33N 48°08' W 123°25'0 0.1
2017-Jan-13 19:33N 48°08' W 123°25'0 0.0
2017-Jan-13 18:33N 48°08' W 123°25'0 0.2
2017-Jan-13 17:33N 48°08' W 123°25'0 0.1
2017-Jan-13 16:30N 48°08' W 123°25'0 0.1
2017-Jan-13 15:33N 48°08' W 123°25'0 0.1
2017-Jan-13 14:33N 48°08' W 123°25'0 0.0
2017-Jan-13 13:24N 48°08' W 123°25'0 0.1
2017-Jan-13 12:33N 48°08' W 123°25'0 0.1
2017-Jan-13 11:33N 48°08' W 123°25'0 0.0
2017-Jan-13 10:33N 48°08' W 123°25'0 0.0
2017-Jan-13 09:33N 48°08' W 123°25'0 0.0
2017-Jan-13 08:33N 48°08' W 123°25'0 0.0
2017-Jan-13 07:33N 48°08' W 123°25'0 0.0
2017-Jan-13 06:33N 48°08' W 123°25'0 0.0
2017-Jan-13 05:33N 48°08' W 123°25'0 0.0
2017-Jan-13 04:33N 48°08' W 123°25'0 0.0
2017-Jan-13 03:33N 48°08' W 123°25'0 0.0
2017-Jan-13 02:33N 48°08' W 123°25'0 0.0
2017-Jan-13 01:33N 48°08' W 123°25'2 1.7
2017-Jan-13 00:33N 48°10' W 123°24'7 6.5
2017-Jan-12 23:30N 48°14' W 123°33'8 8.6
2017-Jan-12 22:33N 48°14' W 123°45'1111.1
2017-Jan-12 21:33N 48°15' W 124°02'1313.0
2017-Jan-12 20:34N 48°21' W 124°19'1414.1
2017-Jan-12 19:34N 48°27' W 124°39'1312.8
2017-Jan-12 18:32N 48°29' W 124°58'1313.0
2017-Jan-12 17:33N 48°18' W 125°09'  
2017-Jan-10 11:26N 38°14' W 124°29'2311.6
2017-Jan-10 09:24N 37°54' W 124°14'1112.0
2017-Jan-10 08:30N 37°44' W 124°07'3410.2
2017-Jan-10 05:08N 37°34' W 123°26'811.8
2017-Jan-10 04:28N 37°33' W 123°16'1111.8
2017-Jan-10 03:33N 37°35' W 123°02'1211.9
2017-Jan-10 02:33N 37°42' W 122°50'1111.4
2017-Jan-10 01:33N 37°46' W 122°37'1211.8
2017-Jan-10 00:33N 37°54' W 122°25'1 1.4
2017-Jan-09 23:32N 37°55' W 122°25'0 0.0
2017-Jan-09 22:29N 37°55' W 122°25'0 0.0
2017-Jan-09 21:29N 37°55' W 122°25'0 0.0
2017-Jan-09 20:32N 37°55' W 122°25'0 0.0
2017-Jan-09 19:32N 37°55' W 122°25'0 0.0
2017-Jan-09 18:32N 37°55' W 122°25'0 0.0
2017-Jan-09 17:29N 37°55' W 122°25'0 0.0
2017-Jan-09 16:32N 37°55' W 122°25'0 0.0
2017-Jan-09 15:29N 37°55' W 122°25'0 0.0
2017-Jan-09 14:32N 37°55' W 122°25'0 0.0
2017-Jan-09 13:32N 37°55' W 122°25'0 0.0
2017-Jan-09 12:32N 37°55' W 122°25'0 0.0
2017-Jan-09 11:32N 37°55' W 122°25'0 0.0
2017-Jan-09 10:32N 37°55' W 122°25'0 0.0
2017-Jan-09 09:29N 37°55' W 122°25'0 0.0
2017-Jan-09 08:29N 37°55' W 122°25'0 0.0
2017-Jan-09 07:29N 37°55' W 122°25'0 0.0
2017-Jan-09 06:33N 37°55' W 122°25'3 2.6
2017-Jan-09 05:33N 37°54' W 122°22'0 0.0
2017-Jan-07 18:32N 37°55' W 122°22'0 0.0
2017-Jan-07 17:32N 37°55' W 122°22'0 0.0
2017-Jan-07 16:32N 37°55' W 122°22'1 1.4
2017-Jan-07 15:33N 37°54' W 122°24'5 5.4
2017-Jan-07 14:33N 37°50' W 122°28'1212.1
2017-Jan-07 13:33N 37°44' W 122°41'6 6.5
2017-Jan-07 12:33N 37°40' W 122°47'10 9.8
2017-Jan-07 11:33N 37°35' W 122°58'9 8.8
2017-Jan-07 10:33N 37°33' W 123°09'8 8.3
2017-Jan-07 09:33N 37°33' W 123°19'  

Dump ship's entire track history